Time;durP1;ratioP1;P1;durP2;ratioP2;P2;SDS_P1;SDS_P2;PMS_P1;PMS_P2;Temp;Humidity;BMP_temperature;BMP_pressure;BME280_temperature;BME280_humidity;BME280_pressure;Samples;Min_cycle;Max_cycle;Signal;HPM_P1;HPM_P2
2021/07/30 00:00:28;;;;;;;6.57;4.10;;;14.80;99.90;;;;;;5071113;28;20467;-71
2021/07/30 00:02:55;;;;;;;4.70;3.70;;;14.80;99.90;;;;;;5071773;28;20465;-71
2021/07/30 00:05:21;;;;;;;6.07;3.60;;;14.80;99.90;;;;;;5069458;28;20581;-72
2021/07/30 00:07:48;;;;;;;3.70;3.40;;;14.80;99.90;;;;;;5071796;28;20469;-71
2021/07/30 00:10:16;;;;;;;3.87;3.47;;;14.80;99.90;;;;;;5070960;28;20463;-72
2021/07/30 00:12:43;;;;;;;5.17;4.00;;;14.80;99.90;;;;;;5071567;28;20477;-72
2021/07/30 00:15:10;;;;;;;4.00;3.70;;;14.70;99.90;;;;;;5071358;28;20487;-71
2021/07/30 00:17:37;;;;;;;6.13;3.70;;;14.70;99.90;;;;;;5071321;28;20458;-71
2021/07/30 00:20:06;;;;;;;3.83;3.50;;;14.70;99.90;;;;;;5069779;28;20463;-71
2021/07/30 00:22:33;;;;;;;3.67;3.37;;;14.60;99.90;;;;;;5071380;28;20516;-71
2021/07/30 00:25:00;;;;;;;4.60;3.37;;;14.60;99.90;;;;;;5071332;28;20565;-71
2021/07/30 00:27:28;;;;;;;3.60;3.23;;;14.60;99.90;;;;;;5071138;28;20466;-72
2021/07/30 00:29:54;;;;;;;3.97;3.43;;;14.60;99.90;;;;;;5070798;28;20458;-72
2021/07/30 00:32:21;;;;;;;4.03;3.63;;;14.60;99.90;;;;;;5070847;28;20454;-71
2021/07/30 00:34:48;;;;;;;4.93;3.63;;;14.50;99.90;;;;;;5071016;28;20622;-72
2021/07/30 00:37:15;;;;;;;4.87;3.97;;;14.50;99.90;;;;;;5071159;28;20458;-71
2021/07/30 00:39:42;;;;;;;4.27;3.40;;;14.50;99.90;;;;;;5070238;28;21025;-71
2021/07/30 00:42:09;;;;;;;3.80;3.40;;;14.50;99.90;;;;;;5071066;28;20466;-71
2021/07/30 00:44:38;;;;;;;4.10;3.63;;;14.50;99.90;;;;;;5070907;28;20476;-71
2021/07/30 00:47:05;;;;;;;4.07;3.40;;;14.50;99.90;;;;;;5071240;28;20454;-71
2021/07/30 00:49:32;;;;;;;4.10;3.70;;;14.40;99.90;;;;;;5070260;28;20465;-71
2021/07/30 00:51:59;;;;;;;3.90;3.60;;;14.40;99.90;;;;;;5070701;28;20462;-72
2021/07/30 00:54:26;;;;;;;4.20;3.60;;;14.30;99.90;;;;;;5070602;28;20459;-71
2021/07/30 00:56:54;;;;;;;4.07;3.67;;;14.30;99.90;;;;;;5070756;28;20462;-71
2021/07/30 00:59:22;;;;;;;6.53;3.60;;;14.30;99.90;;;;;;5070087;28;20490;-72
2021/07/30 01:01:51;;;;;;;4.00;3.40;;;14.30;99.90;;;;;;5070717;28;20977;-72
2021/07/30 01:04:18;;;;;;;4.80;3.10;;;14.30;99.90;;;;;;5070261;28;20466;-71
2021/07/30 01:06:45;;;;;;;3.57;3.27;;;14.20;99.90;;;;;;5070539;28;20458;-71
2021/07/30 01:09:12;;;;;;;6.03;3.90;;;14.20;99.90;;;;;;5069610;28;20508;-72
2021/07/30 01:11:39;;;;;;;5.60;3.90;;;14.20;99.90;;;;;;5070551;28;20466;-71
2021/07/30 01:14:07;;;;;;;4.87;3.67;;;14.20;99.90;;;;;;5070313;28;21176;-72
2021/07/30 01:16:34;;;;;;;5.43;4.00;;;14.20;99.90;;;;;;5070047;28;20496;-71
2021/07/30 01:19:02;;;;;;;4.20;3.13;;;14.10;99.90;;;;;;5070199;28;20557;-71
2021/07/30 01:21:31;;;;;;;3.97;3.63;;;14.10;99.90;;;;;;5069496;28;20570;-71
2021/07/30 01:23:59;;;;;;;3.60;3.30;;;14.20;99.90;;;;;;5070187;28;20459;-72
2021/07/30 01:26:27;;;;;;;3.60;3.30;;;14.10;99.90;;;;;;5069855;28;21067;-72
2021/07/30 01:28:53;;;;;;;4.33;3.83;;;14.10;99.90;;;;;;5069968;28;20463;-71
2021/07/30 01:31:20;;;;;;;3.70;3.40;;;14.10;99.90;;;;;;5068952;28;20469;-72
2021/07/30 01:33:47;;;;;;;4.50;3.57;;;14.10;99.90;;;;;;5069620;28;20467;-71
2021/07/30 01:36:14;;;;;;;4.80;4.00;;;14.00;99.90;;;;;;5069570;28;20486;-71
2021/07/30 01:38:41;;;;;;;4.10;3.70;;;14.00;99.90;;;;;;5069680;28;20462;-72
2021/07/30 01:41:12;;;;;;;5.73;3.50;;;13.90;99.90;;;;;;5069315;28;21205;-71
2021/07/30 01:43:40;;;;;;;3.93;3.63;;;13.90;99.90;;;;;;5069880;28;20558;-72
2021/07/30 01:46:07;;;;;;;3.50;3.20;;;13.90;99.90;;;;;;5069623;28;20851;-71
2021/07/30 01:48:34;;;;;;;4.03;3.70;;;13.90;99.90;;;;;;5069462;28;20469;-71
2021/07/30 01:51:01;;;;;;;4.50;3.93;;;13.90;99.90;;;;;;5068991;28;20467;-72
2021/07/30 01:53:28;;;;;;;3.87;3.30;;;13.80;99.90;;;;;;5069390;28;20462;-71
2021/07/30 01:55:55;;;;;;;3.87;3.57;;;13.80;99.90;;;;;;5069421;28;20867;-72
2021/07/30 01:58:23;;;;;;;3.80;3.40;;;13.70;99.90;;;;;;5069251;28;20467;-72
2021/07/30 02:00:53;;;;;;;4.00;3.60;;;13.70;99.90;;;;;;5068903;28;20458;-71
2021/07/30 02:03:20;;;;;;;3.87;3.30;;;13.70;99.90;;;;;;5069062;28;20458;-72
2021/07/30 02:05:47;;;;;;;5.30;3.23;;;13.70;99.90;;;;;;5069455;28;21060;-71
2021/07/30 02:08:14;;;;;;;5.83;3.57;;;13.70;99.90;;;;;;5069027;28;20981;-71
2021/07/30 02:10:41;;;;;;;3.80;3.17;;;13.70;99.90;;;;;;5068797;28;20459;-71
2021/07/30 02:15:53;;;;;;;3.87;3.47;;;13.60;99.90;;;;;;5068941;28;20565;-72
2021/07/30 02:18:20;;;;;;;5.80;4.30;;;13.60;99.90;;;;;;5069021;28;20838;-71
2021/07/30 02:20:47;;;;;;;4.17;3.23;;;13.50;99.90;;;;;;5068457;28;20812;-72
2021/07/30 02:23:14;;;;;;;4.43;3.70;;;13.50;99.90;;;;;;5068706;28;20465;-71
2021/07/30 02:25:41;;;;;;;4.43;3.60;;;13.50;99.90;;;;;;5068904;28;20985;-71
2021/07/30 02:28:08;;;;;;;5.13;3.63;;;13.50;99.90;;;;;;5068383;28;20473;-71
2021/07/30 02:30:35;;;;;;;5.57;3.47;;;13.50;99.90;;;;;;5068344;28;20462;-72
2021/07/30 02:33:03;;;;;;;4.10;3.70;;;13.50;99.90;;;;;;5068497;28;20458;-71
2021/07/30 02:35:30;;;;;;;4.00;3.50;;;13.50;99.90;;;;;;5068391;28;20597;-71
2021/07/30 02:37:57;;;;;;;4.70;3.73;;;13.40;99.90;;;;;;5068872;28;20524;-71
2021/07/30 02:40:23;;;;;;;4.37;3.83;;;13.40;99.90;;;;;;5068080;28;20454;-72
2021/07/30 02:42:50;;;;;;;4.30;3.90;;;13.30;99.90;;;;;;5068228;28;20454;-71
2021/07/30 02:45:17;;;;;;;4.40;3.90;;;13.40;99.90;;;;;;5068340;28;20479;-71
2021/07/30 02:47:43;;;;;;;4.17;3.73;;;13.30;99.90;;;;;;5068764;28;20545;-71
2021/07/30 02:50:12;;;;;;;5.20;3.93;;;13.30;99.90;;;;;;5068190;28;20470;-71
2021/07/30 02:52:38;;;;;;;3.97;3.50;;;13.30;99.90;;;;;;5068245;28;20500;-71
2021/07/30 02:55:06;;;;;;;3.63;3.33;;;13.30;99.90;;;;;;5068534;28;20899;-71
2021/07/30 02:57:33;;;;;;;4.13;3.73;;;13.20;99.90;;;;;;5068369;28;20466;-72
2021/07/30 03:00:00;;;;;;;4.20;3.80;;;13.20;99.90;;;;;;5067940;28;21166;-72
2021/07/30 03:02:28;;;;;;;3.80;3.50;;;13.20;99.90;;;;;;5068250;28;20458;-72
2021/07/30 03:04:55;;;;;;;6.67;3.63;;;13.20;99.90;;;;;;5068519;28;20532;-72
2021/07/30 03:07:23;;;;;;;4.23;3.83;;;13.10;99.90;;;;;;5068174;28;20451;-71
2021/07/30 03:09:50;;;;;;;4.47;3.93;;;13.10;99.90;;;;;;5067861;28;20946;-72
2021/07/30 03:12:17;;;;;;;5.50;4.00;;;13.10;99.90;;;;;;5068325;28;20469;-72
2021/07/30 03:14:43;;;;;;;4.40;4.00;;;13.10;99.90;;;;;;5068376;28;20929;-72
2021/07/30 03:17:10;;;;;;;4.13;3.80;;;13.10;99.90;;;;;;5068032;28;20490;-72
2021/07/30 03:19:37;;;;;;;5.40;3.80;;;13.10;99.90;;;;;;5067729;28;20461;-72
2021/07/30 03:22:04;;;;;;;4.80;4.20;;;13.10;99.90;;;;;;5068133;28;20465;-72
2021/07/30 03:24:32;;;;;;;3.63;3.30;;;13.10;99.90;;;;;;5067800;28;20467;-72
2021/07/30 03:26:59;;;;;;;3.80;3.40;;;13.00;99.90;;;;;;5068134;28;20457;-71
2021/07/30 03:29:26;;;;;;;4.30;3.70;;;13.00;99.90;;;;;;5067447;28;20459;-72
2021/07/30 03:31:52;;;;;;;4.57;4.10;;;12.90;99.90;;;;;;5068157;28;20459;-72
2021/07/30 03:34:20;;;;;;;4.27;3.87;;;12.90;99.90;;;;;;5067262;28;20455;-72
2021/07/30 03:36:47;;;;;;;4.40;3.50;;;12.90;99.90;;;;;;5068357;28;20857;-72
2021/07/30 03:39:14;;;;;;;4.17;3.77;;;12.90;99.90;;;;;;5067435;28;20835;-72
2021/07/30 03:41:42;;;;;;;4.27;3.87;;;12.90;99.90;;;;;;5068371;28;20466;-72
2021/07/30 03:44:09;;;;;;;4.40;3.97;;;13.00;99.90;;;;;;5068111;28;20894;-71
2021/07/30 03:46:35;;;;;;;4.50;4.10;;;12.90;99.90;;;;;;5068320;28;20889;-72
2021/07/30 03:49:02;;;;;;;4.60;4.20;;;12.90;99.90;;;;;;5068255;28;20458;-71
2021/07/30 03:51:29;;;;;;;4.70;3.70;;;12.90;99.90;;;;;;5067459;28;20454;-72
2021/07/30 03:53:56;;;;;;;4.80;3.60;;;12.90;99.90;;;;;;5068445;28;20463;-71
2021/07/30 03:56:23;;;;;;;5.13;4.53;;;12.90;99.90;;;;;;5070532;28;20461;-69
2021/07/30 03:58:51;;;;;;;5.40;4.50;;;12.90;99.90;;;;;;5071587;28;20462;-70
2021/07/30 04:01:18;;;;;;;4.63;4.13;;;12.90;99.90;;;;;;5071034;28;20469;-70
2021/07/30 04:03:45;;;;;;;4.47;3.77;;;12.80;99.90;;;;;;5071314;28;20459;-69
2021/07/30 04:06:12;;;;;;;4.20;3.80;;;12.90;99.90;;;;;;5071565;28;21259;-69
2021/07/30 04:08:39;;;;;;;4.53;3.90;;;12.80;99.90;;;;;;5071355;28;20822;-70
2021/07/30 04:11:06;;;;;;;6.30;3.80;;;12.80;99.90;;;;;;5070469;28;20485;-69
2021/07/30 04:13:33;;;;;;;4.43;4.03;;;12.80;99.90;;;;;;5070860;28;20958;-69
2021/07/30 04:16:05;;;;;;;4.70;3.90;;;12.90;99.90;;;;;;5071063;28;21170;-69
2021/07/30 04:18:31;;;;;;;5.20;4.00;;;12.80;99.90;;;;;;5071021;28;20841;-70
2021/07/30 04:20:58;;;;;;;4.50;4.10;;;12.80;99.90;;;;;;5070670;28;20454;-70
2021/07/30 04:23:26;;;;;;;4.60;4.10;;;12.80;99.90;;;;;;5070564;28;20825;-69
2021/07/30 04:25:52;;;;;;;4.20;3.80;;;12.80;99.90;;;;;;5071107;28;20489;-69
2021/07/30 04:28:19;;;;;;;7.30;4.60;;;12.80;99.90;;;;;;5070214;28;20462;-69
2021/07/30 04:30:46;;;;;;;4.90;4.40;;;12.80;99.90;;;;;;5069532;28;20458;-70
2021/07/30 04:33:14;;;;;;;5.43;4.27;;;12.80;99.90;;;;;;5071212;28;20466;-70
2021/07/30 04:35:41;;;;;;;4.03;3.73;;;12.80;99.90;;;;;;5070553;28;20993;-69
2021/07/30 04:38:08;;;;;;;4.33;3.93;;;12.80;99.90;;;;;;5070831;28;20469;-69
2021/07/30 04:40:37;;;;;;;5.17;4.30;;;12.80;99.90;;;;;;5070040;28;20465;-70
2021/07/30 04:43:04;;;;;;;4.90;4.40;;;12.90;99.90;;;;;;5070975;28;20493;-70
2021/07/30 04:45:33;;;;;;;3.97;3.67;;;12.90;99.90;;;;;;5070428;28;20574;-70
2021/07/30 04:47:59;;;;;;;5.10;4.47;;;12.90;99.90;;;;;;5070888;28;20459;-70
2021/07/30 04:50:28;;;;;;;4.40;4.00;;;12.90;99.90;;;;;;5070106;28;20553;-70
2021/07/30 04:52:55;;;;;;;4.40;3.83;;;13.00;99.90;;;;;;5070581;28;20481;-70
2021/07/30 04:55:21;;;;;;;4.83;4.07;;;13.00;99.90;;;;;;5070325;28;20483;-70
2021/07/30 04:57:48;;;;;;;4.33;3.90;;;13.00;99.90;;;;;;5070449;28;20490;-70
2021/07/30 05:00:16;;;;;;;4.93;3.77;;;13.10;99.90;;;;;;5069908;28;20458;-70
2021/07/30 05:02:43;;;;;;;4.93;4.53;;;13.10;99.90;;;;;;5070562;28;20458;-70
2021/07/30 05:05:10;;;;;;;4.60;4.20;;;13.20;99.90;;;;;;5070075;28;20510;-70
2021/07/30 05:07:38;;;;;;;5.10;4.40;;;13.20;99.90;;;;;;5069751;28;20478;-70
2021/07/30 05:10:06;;;;;;;6.20;3.80;;;13.30;99.90;;;;;;5069570;28;20958;-69
2021/07/30 05:12:32;;;;;;;5.07;4.60;;;13.40;99.90;;;;;;5070068;28;20459;-69
2021/07/30 05:14:59;;;;;;;7.10;4.80;;;13.40;99.90;;;;;;5070150;28;20478;-70
2021/07/30 05:17:26;;;;;;;4.60;4.10;;;13.50;99.90;;;;;;5069811;28;20490;-70
2021/07/30 05:19:53;;;;;;;4.40;4.00;;;13.50;99.90;;;;;;5069373;28;20481;-70
2021/07/30 05:22:19;;;;;;;6.97;4.17;;;13.60;99.90;;;;;;5068889;28;20462;-69
2021/07/30 05:24:47;;;;;;;4.80;4.30;;;13.60;99.90;;;;;;5052435;28;20840;-70
2021/07/30 05:27:14;;;;;;;6.07;4.33;;;13.70;99.90;;;;;;5049769;28;20470;-69
2021/07/30 05:29:41;;;;;;;4.03;3.73;;;13.80;99.90;;;;;;5049823;28;20459;-70
2021/07/30 05:32:08;;;;;;;6.00;4.60;;;13.80;99.90;;;;;;5050496;28;20598;-70
2021/07/30 05:34:35;;;;;;;4.80;4.30;;;13.90;99.90;;;;;;5049744;28;20581;-71
2021/07/30 05:37:02;;;;;;;9.37;4.90;;;14.00;99.90;;;;;;5217546;22;20488;-74
2021/07/30 05:39:31;;;;;;;5.77;5.20;;;14.10;99.90;;;;;;5063613;28;20965;-74
2021/07/30 05:42:02;;;;;;;5.60;4.90;;;14.20;99.90;;;;;;5070802;28;20458;-76
2021/07/30 05:44:29;;;;;;;5.03;4.63;;;14.30;99.90;;;;;;5071335;28;20501;-75
2021/07/30 05:46:55;;;;;;;5.70;4.70;;;14.40;99.90;;;;;;5071864;28;20457;-75
2021/07/30 05:49:22;;;;;;;4.87;4.47;;;14.50;99.90;;;;;;5071432;28;20458;-75
2021/07/30 05:51:49;;;;;;;5.30;4.80;;;14.50;99.90;;;;;;5052186;28;20832;-74
2021/07/30 05:54:16;;;;;;;5.73;4.40;;;14.60;99.90;;;;;;5032008;28;20453;-76
2021/07/30 05:56:42;;;;;;;6.17;4.90;;;14.70;99.90;;;;;;5031394;28;21007;-76
2021/07/30 05:59:10;;;;;;;5.43;4.60;;;14.80;99.90;;;;;;5035751;28;20456;-74
2021/07/30 06:01:37;;;;;;;5.57;4.93;;;14.90;99.90;;;;;;5040947;28;20460;-76
2021/07/30 06:04:04;;;;;;;5.80;4.47;;;15.00;99.90;;;;;;5031747;28;20453;-75
2021/07/30 06:06:32;;;;;;;5.40;4.60;;;15.10;99.90;;;;;;5031205;28;20487;-76
2021/07/30 06:08:59;;;;;;;5.10;4.47;;;15.20;99.90;;;;;;5031049;28;20859;-76
2021/07/30 06:11:25;;;;;;;5.30;4.70;;;15.30;99.90;;;;;;5030772;28;20463;-76
2021/07/30 06:13:52;;;;;;;5.80;4.73;;;15.40;99.90;;;;;;5031305;28;20468;-76
2021/07/30 06:16:20;;;;;;;5.00;4.60;;;15.50;99.90;;;;;;5031349;28;20480;-74
2021/07/30 06:18:47;;;;;;;6.13;4.57;;;15.60;99.90;;;;;;5031191;28;20464;-74
2021/07/30 06:21:13;;;;;;;6.27;4.83;;;15.70;99.90;;;;;;5032908;28;20464;-76
2021/07/30 06:23:40;;;;;;;5.40;4.90;;;15.80;99.90;;;;;;5033532;28;20471;-76
2021/07/30 06:26:07;;;;;;;5.47;4.97;;;15.90;99.90;;;;;;5033740;28;20484;-76
2021/07/30 06:28:34;;;;;;;6.27;4.93;;;16.00;99.90;;;;;;5033283;28;20967;-74
2021/07/30 06:31:00;;;;;;;4.67;4.27;;;16.10;99.90;;;;;;5033203;28;20460;-75
2021/07/30 06:33:29;;;;;;;5.83;5.10;;;16.30;99.90;;;;;;5034806;28;20464;-75
2021/07/30 06:35:56;;;;;;;5.33;4.83;;;16.50;99.90;;;;;;5033480;28;20484;-75
2021/07/30 06:38:23;;;;;;;4.83;4.23;;;16.60;99.90;;;;;;5034614;28;20541;-76
2021/07/30 06:40:50;;;;;;;5.20;4.70;;;16.80;99.90;;;;;;5033288;28;20847;-75
2021/07/30 06:43:17;;;;;;;5.87;4.97;;;16.90;99.90;;;;;;5034434;28;20471;-76
2021/07/30 06:45:44;;;;;;;7.10;5.03;;;17.00;99.90;;;;;;5034394;28;20480;-76
2021/07/30 06:48:11;;;;;;;4.40;4.00;;;17.10;99.90;;;;;;5034439;28;20463;-75
2021/07/30 06:50:39;;;;;;;5.03;4.37;;;17.20;99.90;;;;;;5031454;28;20475;-75
2021/07/30 06:53:06;;;;;;;4.80;4.17;;;17.30;99.90;;;;;;5035589;28;20451;-76
2021/07/30 06:55:32;;;;;;;5.40;4.90;;;17.40;99.90;;;;;;5053652;28;20471;-75
2021/07/30 06:57:59;;;;;;;5.17;4.10;;;17.50;99.90;;;;;;5053779;28;20845;-75
2021/07/30 07:00:26;;;;;;;5.37;4.00;;;17.60;99.90;;;;;;5053730;28;20464;-76
2021/07/30 07:02:52;;;;;;;5.43;4.63;;;17.60;99.90;;;;;;5054050;28;20451;-76
2021/07/30 07:05:20;;;;;;;4.60;4.20;;;17.70;99.90;;;;;;5053660;28;20486;-77
2021/07/30 07:07:49;;;;;;;5.27;4.77;;;17.80;99.90;;;;;;5053956;28;20519;-76
2021/07/30 07:10:16;;;;;;;5.33;4.70;;;17.90;99.90;;;;;;5052796;28;20514;-76
2021/07/30 07:12:43;;;;;;;5.70;4.60;;;18.00;99.90;;;;;;5052888;28;20554;-75
2021/07/30 07:15:11;;;;;;;5.33;4.83;;;18.10;99.90;;;;;;5052770;28;20491;-76
2021/07/30 07:17:37;;;;;;;5.60;4.43;;;18.20;99.90;;;;;;5051659;28;20483;-76
2021/07/30 07:20:05;;;;;;;5.13;4.53;;;18.20;99.90;;;;;;5053632;28;20456;-76
2021/07/30 07:22:32;;;;;;;4.70;4.23;;;18.20;99.90;;;;;;5052347;28;20498;-76
2021/07/30 07:25:00;;;;;;;7.73;5.00;;;18.30;99.90;;;;;;5049715;28;20479;-77
2021/07/30 07:27:27;;;;;;;5.50;4.60;;;18.50;99.90;;;;;;5050213;28;20463;-77
2021/07/30 07:29:53;;;;;;;5.97;5.00;;;18.50;99.90;;;;;;5051166;28;20455;-77
2021/07/30 07:32:20;;;;;;;7.30;4.20;;;18.50;99.90;;;;;;5055052;28;20463;-76
2021/07/30 07:34:47;;;;;;;4.87;4.43;;;18.60;99.90;;;;;;5054839;28;20848;-76
2021/07/30 07:37:13;;;;;;;5.30;4.80;;;18.60;99.90;;;;;;5054956;28;20479;-77
2021/07/30 07:39:40;;;;;;;5.10;4.60;;;18.60;99.90;;;;;;5054923;28;20471;-77
2021/07/30 07:42:08;;;;;;;5.07;4.67;;;18.70;99.90;;;;;;5055625;28;20459;-76
2021/07/30 07:44:35;;;;;;;6.90;4.83;;;18.80;99.90;;;;;;5054371;28;20479;-76
2021/07/30 07:47:02;;;;;;;7.93;4.80;;;18.90;99.90;;;;;;5054216;28;20471;-76
2021/07/30 07:49:28;;;;;;;5.00;4.60;;;18.90;99.90;;;;;;5053615;28;20455;-76
2021/07/30 07:51:55;;;;;;;4.87;4.37;;;19.00;99.90;;;;;;5054147;28;20490;-77
2021/07/30 07:54:22;;;;;;;5.37;4.87;;;19.00;99.90;;;;;;5052839;28;20455;-77
2021/07/30 07:56:48;;;;;;;5.10;4.60;;;19.00;99.90;;;;;;5054259;28;20463;-76
2021/07/30 07:59:16;;;;;;;7.50;4.77;;;19.10;99.90;;;;;;5055082;28;20463;-77
2021/07/30 08:01:43;;;;;;;5.90;4.90;;;19.20;99.90;;;;;;5055660;28;20463;-77
2021/07/30 08:04:10;;;;;;;6.23;4.73;;;19.40;99.90;;;;;;5055833;28;20470;-77
2021/07/30 08:06:37;;;;;;;5.43;4.90;;;19.40;99.90;;;;;;5054457;28;20487;-76
2021/07/30 08:09:03;;;;;;;4.80;4.40;;;19.50;99.90;;;;;;5054961;28;20491;-76
2021/07/30 08:11:30;;;;;;;5.20;4.40;;;19.60;99.90;;;;;;5054808;28;20458;-77
2021/07/30 08:13:57;;;;;;;5.50;4.60;;;19.70;99.90;;;;;;5054973;28;20495;-76
2021/07/30 08:16:26;;;;;;;5.83;5.23;;;19.80;99.90;;;;;;5055380;28;20490;-77
2021/07/30 08:18:53;;;;;;;5.00;4.50;;;20.00;99.90;;;;;;5054624;28;20479;-77
2021/07/30 08:21:20;;;;;;;5.00;4.47;;;20.10;99.90;;;;;;5054714;28;20491;-76
2021/07/30 08:23:46;;;;;;;5.17;4.77;;;20.30;99.90;;;;;;5054554;28;20467;-76
2021/07/30 08:26:13;;;;;;;5.00;4.50;;;20.40;99.90;;;;;;5054953;28;20479;-77
2021/07/30 08:28:40;;;;;;;6.50;4.90;;;20.50;99.90;;;;;;5055209;28;20459;-76
2021/07/30 08:31:06;;;;;;;5.40;4.90;;;20.60;99.90;;;;;;5054515;28;20467;-75
2021/07/30 08:33:37;;;;;;;4.87;4.47;;;20.70;99.90;;;;;;5054405;28;20474;-76
2021/07/30 08:36:07;;;;;;;8.60;4.50;;;20.70;99.90;;;;;;5054679;28;20513;-77
2021/07/30 08:38:33;;;;;;;5.47;4.63;;;20.80;99.90;;;;;;5054825;28;20487;-76
2021/07/30 08:41:00;;;;;;;4.73;4.33;;;20.90;99.90;;;;;;5052691;28;20460;-77
2021/07/30 08:43:27;;;;;;;4.93;4.50;;;20.90;99.90;;;;;;5053777;28;20464;-76
2021/07/30 08:45:53;;;;;;;4.73;4.33;;;20.90;99.90;;;;;;5054974;28;20486;-77
2021/07/30 08:48:20;;;;;;;6.40;4.60;;;21.00;99.90;;;;;;5054167;28;20460;-76
2021/07/30 08:50:49;;;;;;;4.93;4.50;;;21.00;99.90;;;;;;5054785;28;21005;-76
2021/07/30 08:53:22;;;;;;;5.37;4.87;;;21.10;99.90;;;;;;5054971;28;20973;-77
2021/07/30 08:55:49;;;;;;;4.70;4.30;;;21.10;99.90;;;;;;5054955;28;20484;-76
2021/07/30 08:58:16;;;;;;;4.67;4.27;;;21.30;99.90;;;;;;5054922;28;20487;-76
2021/07/30 09:00:43;;;;;;;5.03;4.63;;;21.40;99.90;;;;;;5056197;28;20463;-76
2021/07/30 09:03:10;;;;;;;5.10;4.57;;;21.50;99.90;;;;;;5055088;28;20455;-76
2021/07/30 09:05:37;;;;;;;4.43;4.03;;;21.50;99.90;;;;;;5054367;28;21082;-76
2021/07/30 09:08:06;;;;;;;5.30;4.80;;;21.50;99.90;;;;;;5054751;28;20452;-77
2021/07/30 09:10:36;;;;;;;5.03;4.53;;;21.60;99.90;;;;;;5051924;28;20466;-76
2021/07/30 09:13:19;;;;;;;5.17;4.67;;;21.60;99.90;;;;;;5052559;28;20471;-76
2021/07/30 09:15:48;;;;;;;5.67;4.77;;;21.70;99.90;;;;;;5053066;28;20579;-76
2021/07/30 09:18:25;;;;;;;5.70;4.60;;;21.80;99.90;;;;;;5053860;28;20846;-76
2021/07/30 09:20:52;;;;;;;4.83;4.43;;;21.90;99.90;;;;;;5053665;28;20463;-77
2021/07/30 09:23:20;;;;;;;5.00;4.47;;;22.00;99.90;;;;;;5053543;28;20495;-76
2021/07/30 09:25:47;;;;;;;6.27;4.67;;;22.20;99.90;;;;;;5053578;28;20487;-77
2021/07/30 09:28:14;;;;;;;5.10;4.60;;;22.30;99.90;;;;;;5052567;28;20459;-76
2021/07/30 09:30:41;;;;;;;4.90;4.50;;;22.20;99.90;;;;;;5053227;28;20463;-75
2021/07/30 09:33:08;;;;;;;5.10;4.60;;;22.30;99.90;;;;;;5054070;28;20498;-76
2021/07/30 09:35:55;;;;;;;5.53;5.03;;;22.30;99.90;;;;;;5053683;28;20864;-76
2021/07/30 09:38:24;;;;;;;6.67;4.90;;;22.40;99.90;;;;;;5054290;28;20488;-76
2021/07/30 09:41:10;;;;;;;7.10;4.77;;;22.50;99.90;;;;;;5054472;28;20464;-77
2021/07/30 09:43:38;;;;;;;5.83;5.23;;;22.60;99.90;;;;;;5054540;28;20468;-77
2021/07/30 09:46:12;;;;;;;5.63;5.13;;;22.70;99.90;;;;;;5054630;28;20994;-76
2021/07/30 09:48:48;;;;;;;5.40;4.90;;;22.70;99.90;;;;;;5054433;28;20460;-77
2021/07/30 09:51:16;;;;;;;5.33;4.83;;;22.80;99.90;;;;;;5053659;28;20489;-76
2021/07/30 09:53:45;;;;;;;7.50;5.30;;;22.90;99.90;;;;;;5054769;28;20455;-77
2021/07/30 09:56:14;;;;;;;5.40;4.90;;;23.10;99.90;;;;;;5055045;28;20540;-76
2021/07/30 09:58:42;;;;;;;6.33;5.73;;;23.10;99.90;;;;;;5054381;28;20513;-76
2021/07/30 10:01:14;;;;;;;5.63;4.93;;;23.30;99.90;;;;;;5054586;28;20461;-76
2021/07/30 10:03:44;;;;;;;5.57;5.07;;;23.30;99.90;;;;;;5055269;28;20550;-76
2021/07/30 10:06:14;;;;;;;5.30;4.80;;;23.30;99.90;;;;;;5054814;28;20489;-77
2021/07/30 10:08:42;;;;;;;5.77;5.17;;;23.30;99.90;;;;;;5055026;28;20454;-77
2021/07/30 10:11:10;;;;;;;6.70;5.87;;;23.40;99.90;;;;;;5053560;28;20470;-75
2021/07/30 10:13:46;;;;;;;5.83;5.30;;;23.40;99.90;;;;;;5055145;28;20855;-77
2021/07/30 10:16:15;;;;;;;6.10;5.60;;;23.50;99.90;;;;;;5054052;28;20486;-76
2021/07/30 10:18:43;;;;;;;5.80;5.30;;;23.50;99.90;;;;;;5053580;28;20865;-76
2021/07/30 10:21:14;;;;;;;5.10;4.60;;;23.60;99.90;;;;;;5053606;28;20470;-76
2021/07/30 10:23:43;;;;;;;5.40;5.00;;;23.70;99.90;;;;;;5053561;28;20521;-76
2021/07/30 10:26:13;;;;;;;6.70;5.20;;;23.80;99.90;;;;;;5053634;28;20479;-76
2021/07/30 10:28:40;;;;;;;7.90;5.20;;;23.90;99.90;;;;;;5053438;28;20465;-76
2021/07/30 10:31:08;;;;;;;5.27;4.77;;;24.10;99.90;;;;;;5053392;28;20539;-76
2021/07/30 10:33:50;;;;;;;5.33;4.93;;;24.20;99.90;;;;;;5053937;28;20463;-76
2021/07/30 10:36:38;;;;;;;5.57;5.07;;;24.30;99.90;;;;;;5053666;28;20920;-76
2021/07/30 10:39:11;;;;;;;6.13;5.60;;;24.30;99.90;;;;;;5054466;28;20544;-76
2021/07/30 10:41:40;;;;;;;5.17;4.67;;;24.30;99.90;;;;;;5054147;28;20940;-76
2021/07/30 10:44:11;;;;;;;6.20;5.70;;;24.40;99.90;;;;;;5054616;28;20462;-76
2021/07/30 10:46:38;;;;;;;5.07;4.67;;;24.40;99.90;;;;;;5054790;28;20491;-76
2021/07/30 10:49:40;;;;;;;5.80;5.27;;;24.50;99.90;;;;;;5054257;28;20455;-75
2021/07/30 10:52:26;;;;;;;5.73;5.23;;;24.60;99.90;;;;;;5053779;28;20454;-76
2021/07/30 10:54:53;;;;;;;5.70;5.20;;;24.60;99.90;;;;;;5051805;28;20541;-76
2021/07/30 10:57:49;;;;;;;5.10;4.70;;;24.80;99.90;;;;;;5051161;28;20467;-76
2021/07/30 11:00:16;;;;;;;6.10;5.53;;;24.90;99.90;;;;;;5033915;28;20463;-76
2021/07/30 11:03:04;;;;;;;7.80;5.30;;;25.00;99.90;;;;;;5052657;28;20465;-76
2021/07/30 11:05:31;;;;;;;7.10;5.03;;;24.90;99.90;;;;;;5050948;28;20490;-76
2021/07/30 11:08:03;;;;;;;5.33;4.80;;;24.70;99.90;;;;;;5052909;28;20456;-76
2021/07/30 11:10:30;;;;;;;5.83;5.33;;;24.60;99.90;;;;;;5053089;28;20481;-76
2021/07/30 11:12:58;;;;;;;6.13;5.13;;;24.70;99.90;;;;;;5053675;28;20467;-76
2021/07/30 11:15:32;;;;;;;5.57;4.97;;;24.70;99.90;;;;;;5053732;28;20487;-76
2021/07/30 11:18:01;;;;;;;5.13;4.73;;;24.60;99.90;;;;;;5054146;28;20590;-76
2021/07/30 11:20:33;;;;;;;5.63;5.20;;;24.60;99.90;;;;;;5053545;28;20469;-76
2021/07/30 11:23:06;;;;;;;6.33;5.73;;;24.50;99.90;;;;;;5054480;28;20490;-76
2021/07/30 11:25:33;;;;;;;5.70;5.10;;;24.40;99.90;;;;;;5055357;28;21040;-76
2021/07/30 11:28:01;;;;;;;6.20;5.67;;;24.30;99.90;;;;;;5054240;28;20459;-75
2021/07/30 11:30:30;;;;;;;6.07;5.57;;;24.30;99.90;;;;;;5053178;28;20463;-75
2021/07/30 11:32:58;;;;;;;6.00;5.50;;;24.40;99.90;;;;;;5054195;28;20456;-76
2021/07/30 11:35:29;;;;;;;5.67;5.17;;;24.50;99.90;;;;;;5117282;22;20521;-69
2021/07/30 11:38:00;;;;;;;7.10;6.43;;;24.60;99.90;;;;;;5060568;28;20466;-69
2021/07/30 11:40:27;;;;;;;7.83;5.97;;;24.80;99.90;;;;;;5068598;28;20524;-70
2021/07/30 11:43:07;;;;;;;6.93;6.20;;;24.90;99.90;;;;;;5069527;28;20461;-69
2021/07/30 11:45:34;;;;;;;5.70;5.10;;;24.90;99.90;;;;;;5068882;28;20482;-70
2021/07/30 11:48:01;;;;;;;6.00;5.50;;;24.90;99.90;;;;;;5069301;28;20462;-69
2021/07/30 11:50:30;;;;;;;7.93;6.00;;;24.90;99.90;;;;;;5068339;28;20462;-70
2021/07/30 11:53:04;;;;;;;5.83;5.33;;;24.90;99.90;;;;;;5069001;28;20545;-69
2021/07/30 11:55:31;;;;;;;6.23;5.73;;;25.10;99.90;;;;;;5068768;28;20514;-70
2021/07/30 11:58:08;;;;;;;7.37;5.77;;;25.20;99.90;;;;;;5068951;28;20465;-70
2021/07/30 12:00:36;;;;;;;6.40;5.87;;;25.40;99.90;;;;;;5068220;28;20477;-69
2021/07/30 12:03:16;;;;;;;5.60;5.00;;;25.50;99.90;;;;;;5069052;28;20454;-69
2021/07/30 12:05:43;;;;;;;5.60;5.10;;;25.60;99.90;;;;;;5068606;28;20548;-70
2021/07/30 12:08:11;;;;;;;5.97;5.37;;;25.70;99.90;;;;;;5069054;28;20470;-69
2021/07/30 12:10:38;;;;;;;5.67;5.17;;;25.80;99.90;;;;;;5067973;28;20462;-69
2021/07/30 12:13:06;;;;;;;6.27;5.33;;;25.80;99.90;;;;;;5068687;28;20465;-69
2021/07/30 12:15:33;;;;;;;6.60;6.00;;;25.80;99.90;;;;;;5069445;28;20485;-69
2021/07/30 12:18:03;;;;;;;6.77;6.17;;;25.70;99.90;;;;;;5072309;28;20845;-69
2021/07/30 12:20:34;;;;;;;7.00;6.10;;;25.60;99.90;;;;;;5071496;28;20466;-70
2021/07/30 12:23:05;;;;;;;6.80;6.20;;;25.40;99.90;;;;;;5072360;28;20461;-70
2021/07/30 12:25:37;;;;;;;9.93;6.87;;;25.20;99.90;;;;;;5071967;28;20853;-70
2021/07/30 12:28:06;;;;;;;6.33;5.73;;;25.10;99.90;;;;;;5072650;28;21013;-69
2021/07/30 12:30:33;;;;;;;6.50;5.90;;;25.00;99.90;;;;;;5071450;28;20465;-70
2021/07/30 12:33:01;;;;;;;7.90;6.77;;;24.90;99.90;;;;;;5072266;28;20809;-69
2021/07/30 12:35:32;;;;;;;6.70;6.20;;;24.90;99.90;;;;;;5071732;28;20478;-69
2021/07/30 12:38:05;;;;;;;6.87;6.17;;;24.90;99.90;;;;;;5072078;28;20496;-70
2021/07/30 12:40:32;;;;;;;6.50;5.93;;;24.90;99.90;;;;;;5071336;28;20986;-69
2021/07/30 12:43:13;;;;;;;6.27;5.63;;;24.90;99.90;;;;;;5071882;28;20484;-70
2021/07/30 12:45:41;;;;;;;7.27;6.57;;;24.90;99.90;;;;;;5071631;28;20486;-69
2021/07/30 12:48:16;;;;;;;7.30;6.60;;;25.00;99.90;;;;;;5071836;28;20458;-69
2021/07/30 12:50:42;;;;;;;7.07;6.10;;;25.10;99.90;;;;;;5071135;28;20462;-69
2021/07/30 12:53:11;;;;;;;6.50;6.00;;;25.40;99.90;;;;;;5071680;28;20465;-69
2021/07/30 12:55:58;;;;;;;6.60;5.90;;;25.50;99.90;;;;;;5071813;28;20920;-70